Time;durP1;ratioP1;P1;durP2;ratioP2;P2;SDS_P1;SDS_P2;PMS_P1;PMS_P2;Temp;Humidity;BMP_temperature;BMP_pressure;BME280_temperature;BME280_humidity;BME280_pressure;Samples;Min_cycle;Max_cycle;Signal;HPM_P1;HPM_P2
2022/05/04 00:00:23;;;;;;;;;;;;;;;9.39;78.76;96428.22;4861821;29;19973;-74
2022/05/04 00:02:49;;;;;;;;;;;;;;;9.37;78.62;96425.00;4861190;29;19955;-74
2022/05/04 00:05:14;;;;;;;;;;;;;;;9.33;78.59;96431.66;4875533;29;20010;-74
2022/05/04 00:07:40;;;;;;;;;;;;;;;9.30;78.17;96419.00;4861409;29;20003;-73
2022/05/04 00:10:06;;;;;;;;;;;;;;;9.26;78.03;96421.25;4861075;29;20455;-73
2022/05/04 00:12:33;;;;;;;;;;;;;;;9.24;78.00;96420.66;4861038;29;19952;-73
2022/05/04 00:14:58;;;;;;;;;;;;;;;9.21;78.36;96425.50;4860924;29;19955;-73
2022/05/04 00:17:24;;;;;;;;;;;;;;;9.17;78.57;96419.88;4861108;29;19982;-73
2022/05/04 00:19:50;;;;;;;;;;;;;;;9.14;78.62;96420.31;4860824;29;20435;-73
2022/05/04 00:22:17;;;;;;;;;;;;;;;9.11;78.76;96411.06;4861059;29;20425;-73
2022/05/04 00:24:43;;;;;;;;;;;;;;;9.09;78.76;96410.47;4861058;29;19965;-74
2022/05/04 00:27:08;;;;;;;;;;;;;;;9.06;79.03;96417.91;4860742;29;19968;-74
2022/05/04 00:29:34;;;;;;;;;;;;;;;9.04;78.85;96415.50;4860993;29;19961;-73
2022/05/04 00:32:00;;;;;;;;;;;;;;;9.00;78.96;96416.94;4861005;29;20387;-75
2022/05/04 00:34:26;;;;;;;;;;;;;;;8.99;78.92;96409.28;4861280;29;20432;-73
2022/05/04 00:36:52;;;;;;;;;;;;;;;8.97;78.60;96411.34;4861171;29;20280;-73
2022/05/04 00:39:18;;;;;;;;;;;;;;;8.94;78.71;96421.19;4860510;29;20035;-73
2022/05/04 00:41:44;;;;;;;;;;;;;;;8.93;78.67;96416.16;4860948;29;19968;-73
2022/05/04 00:44:10;;;;;;;;;;;;;;;8.91;79.06;96411.13;4861134;29;19991;-73
2022/05/04 00:46:35;;;;;;;;;;;;;;;8.89;79.25;96414.97;4860834;29;20010;-74
2022/05/04 00:49:01;;;;;;;;;;;;;;;8.87;78.95;96411.78;4860807;29;20052;-73
2022/05/04 00:51:27;;;;;;;;;;;;;;;8.86;79.01;96410.16;4860921;29;20022;-74
2022/05/04 00:53:53;;;;;;;;;;;;;;;8.83;78.98;96414.00;4860734;29;20382;-73
2022/05/04 00:56:19;;;;;;;;;;;;;;;8.81;78.66;96409.97;4861906;29;19966;-73
2022/05/04 00:58:54;;;;;;;;;;;;;;;8.80;79.12;96416.19;4863912;29;19978;-74
2022/05/04 01:01:23;;;;;;;;;;;;;;;8.77;79.43;96409.59;4856233;29;20321;-73
2022/05/04 01:03:49;;;;;;;;;;;;;;;8.76;79.68;96425.47;4863867;29;19951;-73
2022/05/04 01:06:15;;;;;;;;;;;;;;;8.73;78.55;96414.44;4863943;29;20049;-73
2022/05/04 01:08:40;;;;;;;;;;;;;;;8.71;78.86;96421.69;4863514;29;20000;-73
2022/05/04 01:11:06;;;;;;;;;;;;;;;8.70;79.07;96424.50;4863635;29;20057;-73
2022/05/04 01:13:32;;;;;;;;;;;;;;;8.64;79.09;96414.88;4863871;29;20004;-73
2022/05/04 01:21:10;;;;;;;;;;;;;;;8.54;79.04;96413.47;5139849;23;19983;-73
2022/05/04 01:23:36;;;;;;;;;;;;;;;8.52;79.08;96410.28;4882161;29;19961;-72
2022/05/04 01:26:03;;;;;;;;;;;;;;;8.51;79.18;96410.47;4882102;29;19964;-73
2022/05/04 01:28:29;;;;;;;;;;;;;;;8.49;79.57;96413.28;4873847;29;20414;-73
2022/05/04 01:30:55;;;;;;;;;;;;;;;8.48;79.45;96414.31;4882122;29;19963;-73
2022/05/04 01:33:21;;;;;;;;;;;;;;;8.45;79.40;96409.50;4882381;29;19954;-73
2022/05/04 01:35:47;;;;;;;;;;;;;;;8.43;79.62;96413.31;4881929;29;19953;-73
2022/05/04 01:38:13;;;;;;;;;;;;;;;8.40;79.32;96409.28;4881771;29;19960;-73
2022/05/04 01:40:39;;;;;;;;;;;;;;;8.39;79.62;96409.47;4882080;29;20039;-73
2022/05/04 01:43:05;;;;;;;;;;;;;;;8.35;79.93;96403.84;4881719;29;19963;-73
2022/05/04 01:46:00;;;;;;;;;;;;;;;8.33;80.03;96409.28;4840317;29;20358;-73
2022/05/04 01:48:26;;;;;;;;;;;;;;;8.32;79.76;96410.28;4881737;29;19964;-73
2022/05/04 01:50:51;;;;;;;;;;;;;;;8.31;79.83;96411.28;4882065;29;20394;-73
2022/05/04 01:53:17;;;;;;;;;;;;;;;8.30;79.86;96403.66;4881512;29;20051;-73
2022/05/04 01:55:44;;;;;;;;;;;;;;;8.29;80.05;96408.09;4881550;29;19957;-72
2022/05/04 01:58:11;;;;;;;;;;;;;;;8.28;80.23;96409.09;4881761;29;19960;-73
2022/05/04 02:00:38;;;;;;;;;;;;;;;8.29;80.06;96410.72;4881452;29;20048;-73
2022/05/04 02:03:04;;;;;;;;;;;;;;;8.29;80.24;96415.94;4881604;29;19966;-72
2022/05/04 02:05:30;;;;;;;;;;;;;;;8.30;80.19;96420.13;4881347;29;19970;-73
2022/05/04 02:07:56;;;;;;;;;;;;;;;8.30;80.37;96422.75;4880675;29;20392;-73
2022/05/04 02:10:21;;;;;;;;;;;;;;;8.30;80.70;96421.97;4881359;29;20510;-73
2022/05/04 02:12:47;;;;;;;;;;;;;;;8.30;81.16;96425.38;4874123;29;19960;-73
2022/05/04 02:15:13;;;;;;;;;;;;;;;8.22;80.80;96427.41;4881477;29;19961;-73
2022/05/04 02:17:39;;;;;;;;;;;;;;;8.11;80.77;96421.78;4881225;29;19966;-73
2022/05/04 02:20:05;;;;;;;;;;;;;;;8.07;81.04;96422.38;4886502;29;19987;-72
2022/05/04 02:22:31;;;;;;;;;;;;;;;8.06;81.15;96423.38;4888207;29;20433;-74
2022/05/04 02:24:57;;;;;;;;;;;;;;;8.05;80.67;96413.94;4873335;29;19984;-72
2022/05/04 02:27:23;;;;;;;;;;;;;;;8.06;80.72;96415.53;4885250;29;19955;-72
2022/05/04 02:29:49;;;;;;;;;;;;;;;8.06;80.89;96412.94;4890138;29;19955;-72
2022/05/04 02:32:15;;;;;;;;;;;;;;;8.06;80.76;96418.16;4892380;29;19961;-73
2022/05/04 02:38:11;;;;;;;;;;;;;;;8.04;80.55;96422.78;4883418;29;19956;-73
2022/05/04 02:40:12;;;;;;;;;;;;;;;8.02;80.83;96415.16;4879680;29;19972;-74
2022/05/04 02:42:38;;;;;;;;;;;;;;;8.01;80.70;96417.97;4890993;29;19989;-73
2022/05/04 02:45:05;;;;;;;;;;;;;;;8.01;80.48;96415.34;4886686;29;19967;-73
2022/05/04 02:47:31;;;;;;;;;;;;;;;8.00;80.42;96417.19;4888229;29;19962;-72
2022/05/04 02:49:57;;;;;;;;;;;;;;;7.99;80.64;96414.75;4891375;29;20412;-73
2022/05/04 02:52:23;;;;;;;;;;;;;;;8.01;80.96;96415.34;4895055;29;19961;-73
2022/05/04 02:54:49;;;;;;;;;;;;;;;8.01;80.88;96413.53;4883776;29;19963;-73
2022/05/04 02:57:14;;;;;;;;;;;;;;;8.02;81.19;96412.56;4892199;29;20419;-72
2022/05/04 03:00:04;;;;;;;;;;;;;;;8.01;81.19;96415.34;4854412;29;19998;-73
2022/05/04 03:02:30;;;;;;;;;;;;;;;8.01;81.04;96407.53;4884251;29;20341;-73
2022/05/04 03:05:00;;;;;;;;;;;;;;;8.00;81.21;96421.56;4892658;29;19963;-72
2022/05/04 03:07:26;;;;;;;;;;;;;;;7.98;81.31;96410.53;4893476;29;19957;-72
2022/05/04 03:09:56;;;;;;;;;;;;;;;7.96;81.32;96404.69;4888172;29;19958;-72
2022/05/04 03:12:22;;;;;;;;;;;;;;;7.95;81.19;96413.56;4888773;29;19960;-72
2022/05/04 03:14:48;;;;;;;;;;;;;;;7.96;81.24;96415.16;4890773;29;19961;-73
2022/05/04 03:17:14;;;;;;;;;;;;;;;7.95;81.57;96416.97;4894086;29;20344;-74
2022/05/04 03:19:39;;;;;;;;;;;;;;;7.96;82.06;96412.53;4883509;29;19977;-73
2022/05/04 03:22:06;;;;;;;;;;;;;;;7.97;82.09;96411.53;4889373;29;19968;-75
2022/05/04 03:24:32;;;;;;;;;;;;;;;7.97;82.49;96406.31;4888560;29;19987;-73
2022/05/04 03:26:58;;;;;;;;;;;;;;;7.97;82.44;96406.31;4888624;29;20417;-72
2022/05/04 03:29:24;;;;;;;;;;;;;;;7.96;81.71;96405.53;4888960;29;20323;-72
2022/05/04 03:31:50;;;;;;;;;;;;;;;7.96;81.69;96410.75;4892052;29;19961;-73
2022/05/04 03:34:16;;;;;;;;;;;;;;;7.98;81.53;96407.91;4888990;29;19969;-73
2022/05/04 03:36:41;;;;;;;;;;;;;;;7.99;81.65;96412.16;4856030;29;20020;-74
2022/05/04 03:39:07;;;;;;;;;;;;;;;7.98;81.90;96406.13;4889533;29;19967;-73
2022/05/04 03:41:34;;;;;;;;;;;;;;;7.99;82.45;96409.53;4889027;29;19974;-73
2022/05/04 03:44:00;;;;;;;;;;;;;;;8.00;81.96;96409.34;4890577;29;19953;-74
2022/05/04 03:46:26;;;;;;;;;;;;;;;8.01;81.87;96402.31;4887316;29;19965;-73
2022/05/04 03:48:54;;;;;;;;;;;;;;;8.02;82.54;96404.72;4887873;29;19963;-73
2022/05/04 03:51:20;;;;;;;;;;;;;;;8.04;82.59;96409.72;4891905;29;19962;-73
2022/05/04 03:53:46;;;;;;;;;;;;;;;8.03;82.78;96401.09;4890941;29;19960;-73
2022/05/04 03:56:12;;;;;;;;;;;;;;;8.05;82.58;96409.53;4887442;29;19971;-72
2022/05/04 03:58:38;;;;;;;;;;;;;;;8.05;82.39;96409.53;4887922;29;19971;-72
2022/05/04 04:01:05;;;;;;;;;;;;;;;8.06;82.63;96410.31;4888524;29;19975;-73
2022/05/04 04:03:31;;;;;;;;;;;;;;;8.07;83.02;96409.31;4888024;29;19965;-73
2022/05/04 04:05:57;;;;;;;;;;;;;;;8.06;82.85;96403.31;4889046;29;19957;-73
2022/05/04 04:08:23;;;;;;;;;;;;;;;8.08;82.81;96403.09;4890737;29;19956;-72
2022/05/04 04:10:49;;;;;;;;;;;;;;;8.09;82.81;96404.72;4891713;29;20302;-72
2022/05/04 04:13:15;;;;;;;;;;;;;;;8.10;82.93;96407.09;4885962;29;19997;-72
2022/05/04 04:15:41;;;;;;;;;;;;;;;8.12;83.01;96405.09;4889974;29;19965;-72
2022/05/04 04:18:08;;;;;;;;;;;;;;;8.13;82.78;96400.69;4893076;29;20018;-72
2022/05/04 04:23:24;;;;;;;;;;;;;;;8.17;83.28;96414.94;4889166;29;19959;-72
2022/05/04 04:25:50;;;;;;;;;;;;;;;8.19;83.53;96412.09;4884940;29;20000;-73
2022/05/04 04:28:16;;;;;;;;;;;;;;;8.20;84.45;96411.13;4892699;29;20060;-73
2022/05/04 04:30:41;;;;;;;;;;;;;;;8.23;84.40;96410.69;4858181;29;20410;-72
2022/05/04 04:33:07;;;;;;;;;;;;;;;8.24;84.21;96415.72;4890466;29;19958;-72
2022/05/04 04:35:34;;;;;;;;;;;;;;;8.27;84.11;96414.50;4888905;29;20012;-73
2022/05/04 04:38:00;;;;;;;;;;;;;;;8.29;84.35;96415.94;4891149;29;19964;-73
2022/05/04 04:40:26;;;;;;;;;;;;;;;8.31;84.42;96420.94;4892059;29;19972;-73
2022/05/04 04:42:52;;;;;;;;;;;;;;;8.32;84.54;96420.75;4894818;29;19967;-72
2022/05/04 04:45:18;;;;;;;;;;;;;;;8.34;84.61;96429.19;4874827;29;19959;-73
2022/05/04 04:47:47;;;;;;;;;;;;;;;8.38;86.18;96428.75;4886295;29;19991;-73
2022/05/04 04:50:13;;;;;;;;;;;;;;;8.36;86.04;96425.53;4890848;29;20322;-73
2022/05/04 04:52:40;;;;;;;;;;;;;;;8.31;87.17;96432.19;4896361;29;19963;-73
2022/05/04 04:55:06;;;;;;;;;;;;;;;8.31;86.93;96431.38;4893449;29;19958;-73
2022/05/04 04:57:33;;;;;;;;;;;;;;;8.33;86.47;96430.16;4887628;29;19951;-72
2022/05/04 04:59:59;;;;;;;;;;;;;;;8.37;86.93;96443.63;4892379;29;19974;-72
2022/05/04 05:02:26;;;;;;;;;;;;;;;8.39;87.03;96433.00;4897258;29;20331;-73
2022/05/04 05:04:52;;;;;;;;;;;;;;;8.36;86.28;96436.00;4887621;29;19965;-72
2022/05/04 05:07:18;;;;;;;;;;;;;;;8.36;85.94;96433.38;4892290;29;20469;-73
2022/05/04 05:09:43;;;;;;;;;;;;;;;8.39;85.57;96435.59;4873623;29;19961;-72
2022/05/04 05:12:10;;;;;;;;;;;;;;;8.42;85.43;96438.66;4887784;29;19960;-73
2022/05/04 05:17:20;;;;;;;;;;;;;;;8.46;85.34;96441.63;4890606;29;19959;-73
2022/05/04 05:19:46;;;;;;;;;;;;;;;8.46;85.08;96441.63;4890418;29;20341;-72
2022/05/04 05:22:12;;;;;;;;;;;;;;;8.46;85.02;96439.84;4891941;29;20437;-73
2022/05/04 05:24:38;;;;;;;;;;;;;;;8.49;85.00;96436.03;4890648;29;19957;-73
2022/05/04 05:27:06;;;;;;;;;;;;;;;8.51;85.38;96436.63;4895717;29;19966;-73
2022/05/04 05:29:32;;;;;;;;;;;;;;;8.53;85.32;96438.00;4888272;29;19959;-73
2022/05/04 05:31:58;;;;;;;;;;;;;;;8.56;85.29;96428.16;4891766;29;20307;-73
2022/05/04 05:34:26;;;;;;;;;;;;;;;8.59;85.46;96438.19;4894530;29;19955;-73
2022/05/04 05:36:53;;;;;;;;;;;;;;;8.59;85.26;96441.63;4895483;29;19968;-72
2022/05/04 05:39:19;;;;;;;;;;;;;;;8.60;85.24;96440.59;4886849;29;19954;-73
2022/05/04 05:41:45;;;;;;;;;;;;;;;8.58;85.23;96442.63;4890501;29;20012;-73
2022/05/04 05:44:10;;;;;;;;;;;;;;;8.61;85.54;96447.47;4888452;29;20013;-73
2022/05/04 05:46:36;;;;;;;;;;;;;;;8.65;85.47;96450.44;4890496;29;19984;-73
2022/05/04 05:49:02;;;;;;;;;;;;;;;8.69;85.53;96451.63;4894072;29;20310;-73
2022/05/04 05:51:28;;;;;;;;;;;;;;;8.73;85.44;96451.03;4892032;29;20021;-73
2022/05/04 05:53:54;;;;;;;;;;;;;;;8.77;85.53;96453.25;4888990;29;20404;-73
2022/05/04 05:56:20;;;;;;;;;;;;;;;8.81;85.55;96457.03;4889745;29;20387;-73
2022/05/04 05:58:46;;;;;;;;;;;;;;;8.83;85.28;96450.59;4891343;29;19958;-73
2022/05/04 06:01:12;;;;;;;;;;;;;;;8.87;85.63;96457.03;4889903;29;19980;-73
2022/05/04 06:03:38;;;;;;;;;;;;;;;8.88;85.19;96455.19;4890551;29;20323;-72
2022/05/04 06:06:04;;;;;;;;;;;;;;;8.88;84.75;96456.03;4890287;29;19961;-72
2022/05/04 06:08:29;;;;;;;;;;;;;;;8.89;84.44;96455.00;4889023;29;19976;-72
2022/05/04 06:10:55;;;;;;;;;;;;;;;8.91;85.01;96465.25;4889376;29;19980;-72
2022/05/04 06:13:21;;;;;;;;;;;;;;;8.93;85.14;96458.81;4889613;29;19958;-72
2022/05/04 06:15:47;;;;;;;;;;;;;;;8.95;84.74;96458.63;4889880;29;20402;-73
2022/05/04 06:18:13;;;;;;;;;;;;;;;8.94;84.54;96460.44;4894056;29;19964;-71
2022/05/04 06:20:39;;;;;;;;;;;;;;;8.95;84.60;96461.22;4881732;29;19991;-71
2022/05/04 06:23:05;;;;;;;;;;;;;;;8.98;85.50;96463.41;4880914;29;19969;-72
2022/05/04 06:25:31;;;;;;;;;;;;;;;8.98;85.08;96468.66;4880770;29;20429;-71
2022/05/04 06:27:57;;;;;;;;;;;;;;;9.01;86.14;96470.88;4880885;29;19960;-71
2022/05/04 06:35:52;;;;;;;;;;;;;;;9.14;86.32;96457.72;4880990;29;20454;-72
2022/05/04 06:38:18;;;;;;;;;;;;;;;9.19;86.64;96467.56;4880736;29;19953;-72
2022/05/04 06:40:43;;;;;;;;;;;;;;;9.23;86.81;96465.34;4880635;29;19984;-72
2022/05/04 06:43:09;;;;;;;;;;;;;;;9.27;87.30;96462.09;4880970;29;19967;-71
2022/05/04 06:45:35;;;;;;;;;;;;;;;9.30;87.83;96466.91;4880908;29;20394;-72
2022/05/04 06:48:02;;;;;;;;;;;;;;;9.34;87.42;96473.34;4880623;29;20005;-72
2022/05/04 06:50:28;;;;;;;;;;;;;;;9.39;88.19;96472.72;4881072;29;19953;-74
2022/05/04 06:53:00;;;;;;;;;;;;;;;9.49;87.60;96467.81;4880838;29;19963;-75
2022/05/04 06:55:26;;;;;;;;;;;;;;;9.57;87.23;96474.63;4879271;29;19962;-71
2022/05/04 06:57:52;;;;;;;;;;;;;;;9.61;87.05;96467.16;4879975;29;19971;-72
2022/05/04 07:00:18;;;;;;;;;;;;;;;9.66;86.79;96469.94;4880735;29;20018;-72
2022/05/04 07:02:44;;;;;;;;;;;;;;;9.71;87.43;96475.34;4880450;29;19959;-72
2022/05/04 07:05:09;;;;;;;;;;;;;;;9.75;87.28;96469.47;4879959;29;19963;-72
2022/05/04 07:07:35;;;;;;;;;;;;;;;9.78;86.94;96472.69;4880340;29;20010;-73
2022/05/04 07:10:01;;;;;;;;;;;;;;;9.78;86.50;96464.81;4881009;29;20407;-74
2022/05/04 07:12:27;;;;;;;;;;;;;;;9.80;86.02;96460.19;4880335;29;20370;-74
2022/05/04 07:14:56;;;;;;;;;;;;;;;9.83;87.47;96465.81;4880513;29;20323;-72
2022/05/04 07:17:22;;;;;;;;;;;;;;;9.85;83.23;96455.09;4880310;29;19959;-72
2022/05/04 07:19:48;;;;;;;;;;;;;;;9.86;85.13;96462.75;4883190;29;19977;-72
2022/05/04 07:22:14;;;;;;;;;;;;;;;9.91;85.96;96457.69;4885535;29;20337;-71
2022/05/04 07:24:40;;;;;;;;;;;;;;;10.00;86.75;96460.03;4890913;29;19959;-72
2022/05/04 07:27:06;;;;;;;;;;;;;;;10.09;84.75;96458.75;4891746;29;19987;-72
2022/05/04 07:29:33;;;;;;;;;;;;;;;10.15;83.12;96463.13;4889131;29;19972;-72
2022/05/04 07:31:59;;;;;;;;;;;;;;;10.23;83.78;96472.56;4886715;29;19966;-72
2022/05/04 07:34:25;;;;;;;;;;;;;;;10.30;82.01;96470.69;4886803;29;19998;-72
2022/05/04 07:36:51;;;;;;;;;;;;;;;10.37;83.07;96476.66;4869845;29;20454;-72
2022/05/04 07:44:45;;;;;;;;;;;;;;;10.67;82.84;96471.56;4888641;29;19952;-72
2022/05/04 07:47:11;;;;;;;;;;;;;;;10.72;82.56;96471.69;4888911;29;20043;-72
2022/05/04 07:49:37;;;;;;;;;;;;;;;10.83;84.09;96472.78;4892356;29;19998;-72
2022/05/04 07:52:32;;;;;;;;;;;;;;;10.90;80.97;96470.91;4893149;29;19962;-72
2022/05/04 07:54:58;;;;;;;;;;;;;;;11.04;82.68;96489.13;4891430;29;19964;-72
2022/05/04 07:57:24;;;;;;;;;;;;;;;11.17;81.63;96481.09;4886800;29;19965;-72
2022/05/04 08:05:24;;;;;;;;;;;;;;;11.73;80.73;96489.66;4887835;29;20313;-72
2022/05/04 08:07:50;;;;;;;;;;;;;;;11.90;79.92;96485.41;4895681;29;19958;-72
2022/05/04 08:10:16;;;;;;;;;;;;;;;12.11;77.60;96472.75;4886854;29;19971;-72
2022/05/04 08:13:00;;;;;;;;;;;;;;;12.19;76.40;96477.69;4890371;29;19963;-71
2022/05/04 08:15:26;;;;;;;;;;;;;;;12.18;75.80;96476.91;4894699;29;20307;-71
2022/05/04 08:17:52;;;;;;;;;;;;;;;12.17;76.20;96475.28;4891407;29;20328;-72
2022/05/04 08:20:18;;;;;;;;;;;;;;;12.18;76.16;96478.72;4896211;29;20001;-72
2022/05/04 08:22:44;;;;;;;;;;;;;;;12.24;76.82;96479.63;4892081;29;20023;-72
2022/05/04 08:25:10;;;;;;;;;;;;;;;12.35;76.84;96486.75;4893569;29;19960;-71
2022/05/04 08:27:36;;;;;;;;;;;;;;;12.40;75.35;96476.34;4890529;29;19960;-72
2022/05/04 08:30:02;;;;;;;;;;;;;;;12.49;75.30;96474.94;4894367;29;20041;-72
2022/05/04 08:32:29;;;;;;;;;;;;;;;12.61;75.42;96474.16;4893272;29;20413;-72
2022/05/04 08:34:56;;;;;;;;;;;;;;;12.71;75.30;96475.19;4891637;29;19973;-71
2022/05/04 08:37:21;;;;;;;;;;;;;;;12.78;75.31;96475.06;4894031;29;19962;-71
2022/05/04 08:39:47;;;;;;;;;;;;;;;12.81;74.34;96471.97;4887194;29;19993;-71
2022/05/04 08:42:14;;;;;;;;;;;;;;;12.92;76.12;96481.69;4893144;29;19982;-72
2022/05/04 08:44:42;;;;;;;;;;;;;;;13.08;76.60;96480.16;4892385;29;19974;-71
2022/05/04 08:47:12;;;;;;;;;;;;;;;13.23;76.25;96476.22;4896453;29;19964;-72
2022/05/04 08:49:40;;;;;;;;;;;;;;;13.37;76.79;96485.47;4892526;29;19960;-72
2022/05/04 08:52:07;;;;;;;;;;;;;;;13.46;76.09;96465.66;4888944;29;19962;-72
2022/05/04 08:54:33;;;;;;;;;;;;;;;13.55;75.86;96466.84;4892648;29;19967;-71
2022/05/04 08:56:59;;;;;;;;;;;;;;;13.68;75.27;96468.41;4891153;29;19959;-72
2022/05/04 08:59:28;;;;;;;;;;;;;;;13.98;75.81;96473.41;4895540;29;19960;-72
2022/05/04 09:01:53;;;;;;;;;;;;;;;14.51;75.29;96463.41;4895147;29;19989;-72
2022/05/04 09:04:19;;;;;;;;;;;;;;;14.93;72.14;96441.00;4892522;29;19968;-72
2022/05/04 09:06:45;;;;;;;;;;;;;;;15.17;70.88;96438.91;4892102;29;19957;-72
2022/05/04 09:09:11;;;;;;;;;;;;;;;15.51;70.56;96444.03;4889940;29;19962;-72
2022/05/04 09:11:44;;;;;;;;;;;;;;;15.93;70.53;96443.41;4890344;29;19963;-72
2022/05/04 09:14:26;;;;;;;;;;;;;;;16.33;70.04;96429.66;4890842;29;20451;-72
2022/05/04 09:16:52;;;;;;;;;;;;;;;16.52;68.33;96416.03;4887036;29;20344;-72
2022/05/04 09:19:19;;;;;;;;;;;;;;;16.74;66.88;96411.38;4894178;29;19962;-72
2022/05/04 09:21:47;;;;;;;;;;;;;;;16.94;66.41;96415.19;4882230;29;19981;-72
2022/05/04 09:24:25;;;;;;;;;;;;;;;17.12;65.80;96409.44;4882273;29;19972;-72
2022/05/04 09:26:52;;;;;;;;;;;;;;;17.28;66.24;96412.91;4882161;29;19962;-72
2022/05/04 09:29:18;;;;;;;;;;;;;;;17.34;64.56;96398.63;4882158;29;20445;-72
2022/05/04 09:31:47;;;;;;;;;;;;;;;17.30;64.18;96399.41;4881976;29;19953;-72
2022/05/04 09:34:13;;;;;;;;;;;;;;;17.18;63.36;96392.50;4882289;29;19961;-72
2022/05/04 09:45:24;;;;;;;;;;;;;;;16.51;63.91;96398.56;4881446;29;19960;-72
2022/05/04 09:47:50;;;;;;;;;;;;;;;16.67;64.34;96396.78;4869491;29;19962;-72
2022/05/04 09:50:16;;;;;;;;;;;;;;;16.75;63.63;96397.06;4881850;29;20426;-72
2022/05/04 09:52:50;;;;;;;;;;;;;;;16.72;63.84;96394.16;4881898;29;20416;-72
2022/05/04 09:55:17;;;;;;;;;;;;;;;16.69;65.09;96406.03;4881665;29;19955;-71
2022/05/04 09:57:44;;;;;;;;;;;;;;;16.61;63.74;96385.38;4881772;29;19980;-72
2022/05/04 10:00:12;;;;;;;;;;;;;;;16.67;63.11;96386.19;4881151;29;19968;-72
2022/05/04 10:02:39;;;;;;;;;;;;;;;16.82;62.72;96392.38;4881507;29;19976;-72
2022/05/04 10:05:05;;;;;;;;;;;;;;;16.96;61.37;96383.94;4874536;29;19966;-72
2022/05/04 10:07:31;;;;;;;;;;;;;;;17.07;60.88;96377.63;4881552;29;19969;-72
2022/05/04 10:09:57;;;;;;;;;;;;;;;17.07;64.18;96419.22;4881432;29;19963;-71
2022/05/04 10:12:26;;;;;;;;;;;;;;;17.06;60.50;96372.59;4881515;29;20006;-72
2022/05/04 10:14:54;;;;;;;;;;;;;;;17.04;62.83;96418.69;4881145;29;19953;-72
2022/05/04 10:17:21;;;;;;;;;;;;;;;17.15;63.88;96418.72;4881219;29;20464;-72
2022/05/04 10:19:56;;;;;;;;;;;;;;;17.23;60.53;96381.91;4881002;29;19991;-72
2022/05/04 10:22:31;;;;;;;;;;;;;;;17.37;60.55;96379.56;4881490;29;19980;-72
2022/05/04 10:25:17;;;;;;;;;;;;;;;17.58;59.87;96361.81;4870277;29;19957;-72
2022/05/04 10:27:46;;;;;;;;;;;;;;;17.81;58.10;96336.63;4881568;29;20422;-72
2022/05/04 10:30:30;;;;;;;;;;;;;;;18.03;57.09;96330.25;4880364;29;19968;-72
2022/05/04 10:32:57;;;;;;;;;;;;;;;18.21;57.95;96335.00;4881293;29;19960;-72
2022/05/04 10:35:44;;;;;;;;;;;;;;;18.43;58.34;96337.31;4871123;29;19962;-72
2022/05/04 10:38:14;;;;;;;;;;;;;;;18.63;60.64;96355.03;4880362;29;19986;-72
2022/05/04 10:40:44;;;;;;;;;;;;;;;18.83;55.48;96292.28;4880881;29;19982;-72
2022/05/04 10:43:12;;;;;;;;;;;;;;;19.01;55.93;96290.88;4881299;29;20307;-72
2022/05/04 10:45:39;;;;;;;;;;;;;;;19.21;55.52;96287.28;4880721;29;20337;-72
2022/05/04 10:48:20;;;;;;;;;;;;;;;19.28;56.66;96327.66;4880513;29;19960;-72
2022/05/04 10:50:46;;;;;;;;;;;;;;;19.29;55.09;96285.91;4880748;29;19976;-71
2022/05/04 10:53:34;;;;;;;;;;;;;;;19.34;52.67;96240.63;4880752;29;19969;-73
2022/05/04 10:56:00;;;;;;;;;;;;;;;19.37;53.94;96277.31;4880413;29;19956;-73
2022/05/04 10:58:47;;;;;;;;;;;;;;;19.53;54.91;96281.47;4880365;29;20330;-72
2022/05/04 11:01:14;;;;;;;;;;;;;;;19.80;55.54;96273.00;4870579;29;19996;-72
2022/05/04 11:03:59;;;;;;;;;;;;;;;19.98;53.49;96270.69;4880063;29;19964;-72
2022/05/04 11:06:28;;;;;;;;;;;;;;;20.11;53.37;96256.69;4880180;29;19953;-73
2022/05/04 11:08:56;;;;;;;;;;;;;;;20.32;47.49;96195.22;4880340;29;19972;-73
2022/05/04 11:11:23;;;;;;;;;;;;;;;20.56;48.93;96203.94;4880294;29;19986;-73
2022/05/04 11:13:49;;;;;;;;;;;;;;;20.74;45.33;96157.09;4880171;29;20333;-73
2022/05/04 11:16:16;;;;;;;;;;;;;;;20.83;44.72;96143.88;4880365;29;19985;-73
2022/05/04 11:18:42;;;;;;;;;;;;;;;20.57;45.33;96180.75;4879980;29;19961;-73
2022/05/04 11:21:12;;;;;;;;;;;;;;;20.34;46.24;96190.41;4882714;29;19984;-73
2022/05/04 11:23:38;;;;;;;;;;;;;;;20.21;45.28;96253.13;4872384;29;19958;-72
2022/05/04 11:26:04;;;;;;;;;;;;;;;20.11;45.38;96258.56;4871403;29;19968;-72
2022/05/04 11:28:30;;;;;;;;;;;;;;;20.01;45.72;96280.75;4890771;29;20315;-72
2022/05/04 11:30:56;;;;;;;;;;;;;;;19.86;45.37;96261.22;4887228;29;19972;-72
2022/05/04 11:33:22;;;;;;;;;;;;;;;19.73;39.44;96218.53;4888329;29;19964;-72
2022/05/04 11:35:53;;;;;;;;;;;;;;;19.60;40.56;96241.22;4887502;29;19958;-73
2022/05/04 11:38:20;;;;;;;;;;;;;;;19.48;44.37;96276.94;4888958;29;19966;-73
2022/05/04 11:40:47;;;;;;;;;;;;;;;19.32;44.18;96259.56;4890086;29;20325;-72
2022/05/04 11:43:22;;;;;;;;;;;;;;;19.27;46.33;96275.53;4891996;29;19979;-72
2022/05/04 11:45:49;;;;;;;;;;;;;;;19.31;46.17;96292.53;4871998;29;19960;-72
2022/05/04 11:48:16;;;;;;;;;;;;;;;19.36;45.43;96291.69;4870247;29;19960;-73
2022/05/04 11:50:43;;;;;;;;;;;;;;;19.44;45.95;96288.44;4892582;29;19970;-73
2022/05/04 11:53:09;;;;;;;;;;;;;;;19.51;45.66;96277.47;4889292;29;19986;-73
2022/05/04 11:55:35;;;;;;;;;;;;;;;19.60;46.28;96289.91;4889150;29;19963;-73
2022/05/04 11:58:01;;;;;;;;;;;;;;;19.70;46.86;96282.88;4885769;29;19968;-73
2022/05/04 12:00:27;;;;;;;;;;;;;;;19.80;45.55;96272.19;4888315;29;19968;-73
2022/05/04 12:02:54;;;;;;;;;;;;;;;19.89;45.28;96278.50;4887078;29;19974;-73
2022/05/04 12:05:19;;;;;;;;;;;;;;;19.97;43.44;96267.25;4889257;29;19961;-73
2022/05/04 12:07:45;;;;;;;;;;;;;;;20.05;43.13;96274.59;4888813;29;19974;-73
2022/05/04 12:10:13;;;;;;;;;;;;;;;20.10;41.22;96239.16;4889784;29;19972;-73
2022/05/04 12:12:40;;;;;;;;;;;;;;;20.22;44.85;96276.81;4887120;29;19957;-73
2022/05/04 12:15:07;;;;;;;;;;;;;;;20.33;45.52;96292.69;4886882;29;19966;-73
2022/05/04 12:17:34;;;;;;;;;;;;;;;20.46;39.97;96234.16;4890424;29;19963;-74
2022/05/04 12:20:00;;;;;;;;;;;;;;;20.63;45.61;96283.56;4891570;29;19995;-73
2022/05/04 12:22:26;;;;;;;;;;;;;;;20.82;41.10;96311.00;4887432;29;19983;-73
2022/05/04 12:24:52;;;;;;;;;;;;;;;21.01;41.92;96326.22;4886477;29;19957;-73
2022/05/04 12:27:18;;;;;;;;;;;;;;;21.24;39.25;96309.34;4890263;29;19968;-73
2022/05/04 12:35:13;;;;;;;;;;;;;;;21.70;42.19;96342.56;4884243;29;19970;-73
2022/05/04 12:37:38;;;;;;;;;;;;;;;21.41;42.45;96340.06;4893543;29;19958;-73
2022/05/04 12:40:05;;;;;;;;;;;;;;;20.95;43.07;96348.69;4891593;29;19964;-73
2022/05/04 12:42:31;;;;;;;;;;;;;;;20.38;44.64;96369.84;4884255;29;19974;-73
2022/05/04 12:44:58;;;;;;;;;;;;;;;20.07;44.79;96368.28;4887934;29;19958;-73
2022/05/04 12:47:24;;;;;;;;;;;;;;;19.93;46.72;96379.84;4890181;29;20012;-73
2022/05/04 12:49:50;;;;;;;;;;;;;;;19.82;46.58;96384.47;4889100;29;20396;-72
2022/05/04 12:52:17;;;;;;;;;;;;;;;19.63;46.34;96385.13;4872068;29;19969;-73
2022/05/04 12:54:43;;;;;;;;;;;;;;;19.40;45.55;96378.63;4894421;29;19968;-73
2022/05/04 12:57:14;;;;;;;;;;;;;;;19.45;47.16;96397.19;4888348;29;20013;-73
2022/05/04 12:59:40;;;;;;;;;;;;;;;19.46;46.79;96385.50;4892753;29;19968;-73
2022/05/04 13:02:06;;;;;;;;;;;;;;;19.54;47.54;96386.75;4891968;29;19979;-73
2022/05/04 13:04:32;;;;;;;;;;;;;;;19.76;47.87;96388.22;4892246;29;19960;-74
2022/05/04 13:06:58;;;;;;;;;;;;;;;19.90;46.46;96377.75;4876562;29;19970;-74
2022/05/04 13:09:24;;;;;;;;;;;;;;;19.67;46.41;96364.06;4886367;29;20051;-73
2022/05/04 13:11:52;;;;;;;;;;;;;;;19.22;46.88;96358.78;4891900;29;20473;-73
2022/05/04 13:14:17;;;;;;;;;;;;;;;19.10;47.43;96374.25;4893918;29;20007;-73
2022/05/04 13:16:43;;;;;;;;;;;;;;;19.02;47.28;96367.69;4870504;29;20019;-74
2022/05/04 13:19:11;;;;;;;;;;;;;;;19.03;47.19;96361.28;4896369;29;20066;-73
2022/05/04 13:21:37;;;;;;;;;;;;;;;18.93;46.89;96352.56;4882365;29;19990;-73
2022/05/04 13:24:03;;;;;;;;;;;;;;;18.83;47.18;96356.06;4887214;29;20017;-73
2022/05/04 13:26:29;;;;;;;;;;;;;;;18.62;46.02;96331.41;4881967;29;19968;-74
2022/05/04 13:28:55;;;;;;;;;;;;;;;18.40;46.87;96343.19;4882275;29;19964;-73
2022/05/04 13:31:21;;;;;;;;;;;;;;;18.32;47.31;96345.59;4882251;29;19971;-73
2022/05/04 13:33:47;;;;;;;;;;;;;;;18.19;46.89;96342.44;4881967;29;19957;-74
2022/05/04 13:36:13;;;;;;;;;;;;;;;18.05;46.11;96328.91;4882065;29;19959;-73